Time;durP1;ratioP1;P1;durP2;ratioP2;P2;SDS_P1;SDS_P2;PMS_P1;PMS_P2;Temp;Humidity;BMP_temperature;BMP_pressure;BME280_temperature;BME280_humidity;BME280_pressure;Samples;Min_cycle;Max_cycle;Signal;HPM_P1;HPM_P2
2023/05/05 00:01:19;;;;;;;2.00;1.55;;;17.00;64.00;;;;;;10365432;28;20061;-56
2023/05/05 00:06:20;;;;;;;3.13;2.17;;;16.90;63.90;;;;;;10365690;28;20451;-56
2023/05/05 00:11:20;;;;;;;2.30;1.70;;;16.90;63.90;;;;;;10365687;28;20034;-56
2023/05/05 00:16:22;;;;;;;1.98;1.73;;;17.00;64.00;;;;;;10365383;28;20053;-55
2023/05/05 00:21:22;;;;;;;2.63;1.83;;;17.00;64.10;;;;;;10365122;28;20361;-56
2023/05/05 00:26:23;;;;;;;2.70;1.88;;;16.90;64.20;;;;;;10350974;28;20112;-56
2023/05/05 00:31:24;;;;;;;2.72;1.73;;;17.00;64.10;;;;;;10363652;28;20032;-57
2023/05/05 00:36:24;;;;;;;2.33;1.85;;;16.90;64.00;;;;;;10364489;28;20040;-57
2023/05/05 00:41:25;;;;;;;2.53;1.95;;;16.90;64.20;;;;;;10364793;28;20022;-54
2023/05/05 00:46:29;;;;;;;2.25;1.50;;;16.90;64.10;;;;;;10364629;28;20018;-57
2023/05/05 00:51:30;;;;;;;2.55;1.92;;;16.90;64.10;;;;;;10364397;28;20461;-55
2023/05/05 00:56:31;;;;;;;2.50;1.80;;;16.90;64.20;;;;;;10362315;28;20124;-56
2023/05/05 01:01:32;;;;;;;2.28;1.73;;;16.90;64.30;;;;;;10363137;28;20026;-57
2023/05/05 01:07:03;;;;;;;2.67;1.90;;;16.90;64.30;;;;;;10364284;28;20107;-55
2023/05/05 01:12:36;;;;;;;2.35;1.95;;;16.90;64.30;;;;;;10366809;28;20113;-57
2023/05/05 01:17:47;;;;;;;2.95;2.20;;;16.90;64.30;;;;;;10372104;28;20041;-56
2023/05/05 01:22:59;;;;;;;2.97;2.33;;;16.90;64.20;;;;;;10370915;28;20022;-56
2023/05/05 01:28:47;;;;;;;3.20;2.30;;;16.90;64.30;;;;;;10370311;28;20044;-56
2023/05/05 01:33:53;;;;;;;3.92;3.00;;;16.90;64.30;;;;;;10372639;28;20650;-54
2023/05/05 01:38:59;;;;;;;5.68;3.20;;;16.90;64.30;;;;;;10369986;28;20107;-56
2023/05/05 01:44:03;;;;;;;3.90;3.00;;;16.90;64.40;;;;;;10371216;28;20028;-56
2023/05/05 01:49:06;;;;;;;3.08;2.13;;;16.90;65.10;;;;;;10369539;28;20026;-56
2023/05/05 01:54:08;;;;;;;2.97;2.35;;;16.90;64.50;;;;;;10369529;28;20113;-56
2023/05/05 01:59:09;;;;;;;4.25;3.45;;;16.90;64.60;;;;;;10370818;28;20389;-57
2023/05/05 02:04:11;;;;;;;4.45;3.08;;;16.90;64.60;;;;;;10384665;28;20779;-56
2023/05/05 02:09:13;;;;;;;4.60;3.53;;;16.90;64.80;;;;;;10367616;28;20049;-57
2023/05/05 02:14:17;;;;;;;3.90;3.05;;;16.90;64.80;;;;;;10350159;28;20482;-55
2023/05/05 02:19:21;;;;;;;4.30;3.55;;;16.90;64.80;;;;;;10367216;28;20030;-56
2023/05/05 02:24:22;;;;;;;4.13;3.58;;;16.90;64.90;;;;;;10365625;28;20436;-57
2023/05/05 02:29:38;;;;;;;3.58;2.30;;;16.90;64.90;;;;;;10365544;28;20028;-56
2023/05/05 02:34:41;;;;;;;3.97;2.65;;;16.90;64.80;;;;;;10368010;28;20045;-57
2023/05/05 02:39:50;;;;;;;3.38;2.40;;;16.90;64.80;;;;;;10365565;28;20026;-56
2023/05/05 02:44:52;;;;;;;4.20;2.77;;;16.80;64.80;;;;;;10365081;28;20018;-57
2023/05/05 02:49:53;;;;;;;3.20;2.63;;;16.80;64.90;;;;;;10365299;28;20080;-55
2023/05/05 02:54:54;;;;;;;4.10;2.97;;;16.90;65.00;;;;;;10365959;28;20194;-57
2023/05/05 03:00:22;;;;;;;3.58;2.97;;;16.90;65.00;;;;;;10365887;28;20046;-55
2023/05/05 03:05:27;;;;;;;4.63;3.10;;;16.90;65.00;;;;;;10326266;28;1038272;-56
2023/05/05 03:10:45;;;;;;;3.95;3.42;;;16.90;65.00;;;;;;10366489;28;20065;-56
2023/05/05 03:15:50;;;;;;;3.30;2.38;;;16.90;65.10;;;;;;10366205;28;20030;-56
2023/05/05 03:20:51;;;;;;;2.92;2.58;;;16.80;65.00;;;;;;10366241;28;20037;-52
2023/05/05 03:25:51;;;;;;;3.20;2.60;;;16.80;65.00;;;;;;10354056;28;20752;-55
2023/05/05 03:30:53;;;;;;;4.25;2.90;;;16.90;65.10;;;;;;10367783;28;20394;-56
2023/05/05 03:35:53;;;;;;;4.32;2.53;;;16.90;65.10;;;;;;10364648;28;20056;-57
2023/05/05 03:40:55;;;;;;;3.45;2.70;;;16.80;65.00;;;;;;10366760;28;20105;-57
2023/05/05 03:45:55;;;;;;;3.10;2.42;;;16.80;65.00;;;;;;10364914;28;20028;-57
2023/05/05 03:50:56;;;;;;;3.58;2.58;;;16.80;65.10;;;;;;10364091;28;20032;-55
2023/05/05 03:55:57;;;;;;;3.72;2.50;;;16.90;65.20;;;;;;10364122;28;20061;-57
2023/05/05 04:00:57;;;;;;;3.25;2.70;;;16.80;65.10;;;;;;10365679;28;20098;-57
2023/05/05 04:05:59;;;;;;;3.42;2.65;;;16.80;65.50;;;;;;10365504;28;20157;-56
2023/05/05 04:11:01;;;;;;;2.88;2.58;;;16.80;65.10;;;;;;10365566;28;20084;-57
2023/05/05 04:16:02;;;;;;;3.80;3.20;;;16.80;65.10;;;;;;10364839;28;20038;-57
2023/05/05 04:21:02;;;;;;;2.92;2.38;;;16.80;65.80;;;;;;10364970;28;20520;-56
2023/05/05 04:26:03;;;;;;;4.03;3.65;;;16.80;65.20;;;;;;10351788;28;20020;-56
2023/05/05 04:31:04;;;;;;;2.97;2.42;;;16.80;65.20;;;;;;10363615;28;20113;-56
2023/05/05 04:36:06;;;;;;;2.47;2.28;;;16.80;65.20;;;;;;10364360;28;20038;-55
2023/05/05 04:41:06;;;;;;;2.85;2.47;;;16.80;65.20;;;;;;10364452;28;20072;-56
2023/05/05 04:46:07;;;;;;;4.07;2.42;;;16.80;65.20;;;;;;10364299;28;20109;-56
2023/05/05 04:51:08;;;;;;;3.67;2.72;;;16.80;65.30;;;;;;10364154;28;20053;-57
2023/05/05 04:56:08;;;;;;;3.80;2.95;;;16.80;65.30;;;;;;10363912;28;20038;-57
2023/05/05 05:01:09;;;;;;;3.67;2.67;;;16.80;65.30;;;;;;10336605;28;20030;-56
2023/05/05 05:06:10;;;;;;;3.70;2.80;;;16.80;65.30;;;;;;10363475;28;20535;-55
2023/05/05 05:11:11;;;;;;;2.80;2.22;;;16.80;65.30;;;;;;10364019;28;20105;-56
2023/05/05 05:16:12;;;;;;;5.47;2.15;;;16.80;65.30;;;;;;10363746;28;20665;-56
2023/05/05 05:21:12;;;;;;;2.88;2.30;;;16.80;65.30;;;;;;10362209;28;20029;-55
2023/05/05 05:26:13;;;;;;;2.75;2.22;;;16.80;65.30;;;;;;10348801;28;20083;-56
2023/05/05 05:31:14;;;;;;;3.30;2.40;;;16.80;65.30;;;;;;10365023;28;20018;-56
2023/05/05 05:36:14;;;;;;;3.22;2.30;;;16.80;65.40;;;;;;10363004;28;20117;-56
2023/05/05 05:41:15;;;;;;;3.13;2.40;;;16.80;65.40;;;;;;10363328;28;20361;-57
2023/05/05 05:46:17;;;;;;;3.78;2.70;;;16.80;65.50;;;;;;10363583;28;20122;-56
2023/05/05 05:51:17;;;;;;;3.53;2.83;;;16.80;65.50;;;;;;10363068;28;20022;-56
2023/05/05 05:56:18;;;;;;;3.15;2.28;;;16.80;65.60;;;;;;10363156;28;20030;-56
2023/05/05 06:01:19;;;;;;;3.22;2.42;;;16.80;65.70;;;;;;10370469;28;20087;-55
2023/05/05 06:06:20;;;;;;;4.28;2.22;;;16.80;65.60;;;;;;10361256;28;20213;-56
2023/05/05 06:11:21;;;;;;;2.88;2.20;;;16.80;65.60;;;;;;10370246;28;20057;-57
2023/05/05 06:16:22;;;;;;;2.78;1.92;;;16.80;65.60;;;;;;10369738;28;20064;-56
2023/05/05 06:21:22;;;;;;;3.58;2.50;;;16.80;65.70;;;;;;10369862;28;20101;-56
2023/05/05 06:26:23;;;;;;;3.40;2.22;;;16.80;65.70;;;;;;10356358;28;20099;-57
2023/05/05 06:31:24;;;;;;;2.60;2.05;;;16.80;65.80;;;;;;10367793;28;20088;-55
2023/05/05 06:36:25;;;;;;;3.72;2.85;;;16.80;65.90;;;;;;10368996;28;20501;-56
2023/05/05 06:41:25;;;;;;;3.85;2.83;;;16.80;65.90;;;;;;10368953;28;20438;-57
2023/05/05 06:46:26;;;;;;;3.47;2.60;;;16.80;66.00;;;;;;10368693;28;20113;-57
2023/05/05 06:51:28;;;;;;;5.63;2.58;;;16.90;66.10;;;;;;10368654;28;20394;-57
2023/05/05 06:56:30;;;;;;;3.88;2.40;;;16.90;66.00;;;;;;10368431;28;20088;-56
2023/05/05 07:01:30;;;;;;;3.47;2.40;;;16.90;65.80;;;;;;10366724;28;20041;-56
2023/05/05 07:06:31;;;;;;;4.25;2.85;;;16.90;65.80;;;;;;10368117;28;20149;-57
2023/05/05 07:11:32;;;;;;;3.00;2.20;;;16.90;65.90;;;;;;10365216;28;20030;-54
2023/05/05 07:16:33;;;;;;;2.72;2.10;;;16.90;66.00;;;;;;10366480;28;20022;-56
2023/05/05 07:21:35;;;;;;;3.25;2.45;;;16.90;65.80;;;;;;10366190;28;20075;-57
2023/05/05 07:26:35;;;;;;;3.40;2.58;;;16.90;65.70;;;;;;10366809;28;20409;-57
2023/05/05 07:31:36;;;;;;;2.90;2.15;;;17.00;65.80;;;;;;10366838;28;20036;-55
2023/05/05 07:36:37;;;;;;;3.47;2.63;;;17.00;65.60;;;;;;10365253;28;20117;-56
2023/05/05 07:41:38;;;;;;;3.35;2.33;;;17.00;65.60;;;;;;10366979;28;20029;-56
2023/05/05 07:46:38;;;;;;;2.88;2.25;;;17.10;65.50;;;;;;10366376;28;20037;-57
2023/05/05 07:51:39;;;;;;;3.42;2.13;;;17.10;65.50;;;;;;10366112;28;20100;-57
2023/05/05 07:56:39;;;;;;;2.38;1.85;;;17.10;65.60;;;;;;10365544;28;20038;-55
2023/05/05 08:01:40;;;;;;;2.75;1.98;;;17.10;65.50;;;;;;10365552;28;20050;-55
2023/05/05 08:06:41;;;;;;;2.42;1.95;;;17.20;65.60;;;;;;10364823;28;20053;-57
2023/05/05 08:11:42;;;;;;;2.30;1.90;;;17.20;65.60;;;;;;10365603;28;20065;-56
2023/05/05 08:16:42;;;;;;;2.75;1.90;;;17.20;65.60;;;;;;10364730;28;20175;-57
2023/05/05 08:21:43;;;;;;;2.58;2.05;;;17.20;65.60;;;;;;10364873;28;20041;-56
2023/05/05 08:26:44;;;;;;;4.18;2.58;;;17.20;65.60;;;;;;10354593;28;20113;-57
2023/05/05 08:31:44;;;;;;;2.92;1.95;;;17.30;65.70;;;;;;10366497;28;20493;-57
2023/05/05 08:36:47;;;;;;;3.08;1.85;;;17.30;65.70;;;;;;10363248;28;20037;-53
2023/05/05 08:41:48;;;;;;;2.50;1.85;;;17.30;65.70;;;;;;10365096;28;20053;-57
2023/05/05 08:46:50;;;;;;;2.60;2.20;;;17.30;65.70;;;;;;10364730;28;20029;-57
2023/05/05 08:51:52;;;;;;;3.60;2.30;;;17.40;65.70;;;;;;10363167;28;20589;-56
2023/05/05 08:56:54;;;;;;;3.08;2.40;;;17.40;65.70;;;;;;10364036;28;20073;-56
2023/05/05 09:01:57;;;;;;;3.00;2.25;;;17.40;65.60;;;;;;10362805;28;20132;-56
2023/05/05 09:06:58;;;;;;;2.58;2.17;;;17.40;65.60;;;;;;10363938;28;20460;-56
2023/05/05 09:12:00;;;;;;;2.75;2.17;;;17.40;65.50;;;;;;10363798;28;20026;-56
2023/05/05 09:17:02;;;;;;;2.40;1.95;;;17.40;65.60;;;;;;10362365;28;20038;-56
2023/05/05 09:22:02;;;;;;;2.47;1.73;;;17.40;65.50;;;;;;10362986;28;20071;-54
2023/05/05 09:27:21;;;;;;;1.88;1.45;;;17.40;65.50;;;;;;10363528;28;20022;-56
2023/05/05 09:32:21;;;;;;;2.97;1.80;;;17.50;65.50;;;;;;10366049;28;20014;-56
2023/05/05 09:37:30;;;;;;;2.28;1.70;;;17.40;65.50;;;;;;10370537;28;20061;-56
2023/05/05 09:42:31;;;;;;;1.83;1.50;;;17.40;65.60;;;;;;10371216;28;20076;-56
2023/05/05 09:47:36;;;;;;;2.55;1.60;;;17.40;65.60;;;;;;10370963;28;20054;-56
2023/05/05 09:52:36;;;;;;;2.63;1.77;;;17.50;65.70;;;;;;10371277;28;20141;-56
2023/05/05 09:57:37;;;;;;;3.00;1.88;;;17.50;65.60;;;;;;10370822;28;20095;-53
2023/05/05 10:02:39;;;;;;;2.30;1.77;;;17.40;65.60;;;;;;10352794;28;20018;-57
2023/05/05 10:07:42;;;;;;;2.13;1.52;;;17.40;65.70;;;;;;10370451;28;20603;-55
2023/05/05 10:12:44;;;;;;;2.15;1.63;;;17.40;65.70;;;;;;10369894;28;20029;-57
2023/05/05 10:17:47;;;;;;;2.13;1.60;;;17.40;65.70;;;;;;10368811;28;20030;-56
2023/05/05 10:22:51;;;;;;;2.70;1.77;;;17.50;65.70;;;;;;10369635;28;20018;-56
2023/05/05 10:27:57;;;;;;;2.83;1.80;;;17.50;65.70;;;;;;10368308;28;20453;-56
2023/05/05 10:33:25;;;;;;;1.95;1.45;;;17.50;65.80;;;;;;10370583;28;20034;-57
2023/05/05 10:38:29;;;;;;;2.40;1.98;;;17.50;65.80;;;;;;10368642;28;20141;-56
2023/05/05 10:43:30;;;;;;;2.92;2.03;;;17.50;65.70;;;;;;10368634;28;20056;-56
2023/05/05 10:48:49;;;;;;;1.85;1.25;;;17.50;65.70;;;;;;10367349;28;20114;-54
2023/05/05 10:54:04;;;;;;;1.67;1.40;;;17.50;65.70;;;;;;10367723;28;20022;-56
2023/05/05 10:59:34;;;;;;;1.67;1.23;;;17.50;65.70;;;;;;10366788;28;20073;-56
2023/05/05 11:04:35;;;;;;;1.90;1.70;;;17.50;65.70;;;;;;10353239;28;20104;-56
2023/05/05 11:09:57;;;;;;;2.63;1.38;;;17.60;65.80;;;;;;10367777;28;20133;-57
2023/05/05 11:15:26;;;;;;;2.03;1.52;;;17.50;65.70;;;;;;10366076;28;20029;-56
2023/05/05 11:20:36;;;;;;;2.75;1.75;;;17.50;65.70;;;;;;10364479;28;20026;-56
2023/05/05 11:25:37;;;;;;;2.30;1.40;;;17.50;65.80;;;;;;10367566;28;20061;-57
2023/05/05 11:30:53;;;;;;;2.13;1.60;;;17.50;65.80;;;;;;10367094;28;20153;-57
2023/05/05 11:36:00;;;;;;;2.13;1.50;;;17.50;65.90;;;;;;10366255;28;20034;-57
2023/05/05 11:41:08;;;;;;;2.00;1.40;;;17.40;66.10;;;;;;10366758;28;20022;-57
2023/05/05 11:46:14;;;;;;;1.63;1.33;;;17.40;66.10;;;;;;10366155;28;20053;-57
2023/05/05 11:51:16;;;;;;;1.90;1.45;;;17.40;66.30;;;;;;10364568;28;20028;-55
2023/05/05 11:56:19;;;;;;;1.77;1.33;;;17.30;66.50;;;;;;10365193;28;20033;-58
2023/05/05 12:01:19;;;;;;;2.05;1.35;;;17.30;66.60;;;;;;10366040;28;20204;-56
2023/05/05 12:06:20;;;;;;;2.47;1.40;;;17.30;66.60;;;;;;10365455;28;20056;-55
2023/05/05 12:11:22;;;;;;;2.30;1.58;;;17.30;66.70;;;;;;10365692;28;20026;-57
2023/05/05 12:16:22;;;;;;;2.10;1.40;;;17.20;66.80;;;;;;10365578;28;20034;-56
2023/05/05 12:21:23;;;;;;;1.80;1.30;;;17.20;66.70;;;;;;10365190;28;20109;-57
2023/05/05 12:26:29;;;;;;;3.00;1.40;;;17.20;66.90;;;;;;10364586;28;20100;-57
2023/05/05 12:31:37;;;;;;;1.58;1.17;;;17.20;66.80;;;;;;10366226;28;20041;-55
2023/05/05 12:36:38;;;;;;;1.75;1.10;;;17.20;66.80;;;;;;10364382;28;20034;-55
2023/05/05 12:41:40;;;;;;;2.38;1.58;;;17.30;66.90;;;;;;10364652;28;20737;-57
2023/05/05 12:46:45;;;;;;;2.03;1.45;;;17.20;66.80;;;;;;10364679;28;20029;-57
2023/05/05 12:51:56;;;;;;;2.55;1.45;;;17.30;66.90;;;;;;10354260;28;20026;-57
2023/05/05 12:56:57;;;;;;;1.98;1.20;;;17.20;66.90;;;;;;10364391;28;20112;-56
2023/05/05 13:02:00;;;;;;;1.77;1.10;;;17.20;66.90;;;;;;10363898;28;20645;-57
2023/05/05 13:07:14;;;;;;;2.08;1.48;;;17.20;67.00;;;;;;10365596;28;20128;-58
2023/05/05 13:12:18;;;;;;;2.30;1.50;;;17.20;67.00;;;;;;10372418;28;20113;-54
2023/05/05 13:17:19;;;;;;;1.70;1.20;;;17.20;67.00;;;;;;10370313;28;20035;-57
2023/05/05 13:22:19;;;;;;;2.65;1.33;;;17.20;67.00;;;;;;10370844;28;20477;-57
2023/05/05 13:27:20;;;;;;;1.35;1.00;;;17.20;67.10;;;;;;10358692;28;20118;-54
2023/05/05 13:32:21;;;;;;;2.80;1.27;;;17.20;67.20;;;;;;10373374;28;20164;-55
2023/05/05 13:37:22;;;;;;;1.80;1.17;;;17.20;67.10;;;;;;10371480;28;20092;-56
2023/05/05 13:42:22;;;;;;;2.85;1.58;;;17.20;67.10;;;;;;10371242;28;20142;-56
2023/05/05 13:47:23;;;;;;;1.65;1.23;;;17.30;67.10;;;;;;10371208;28;20053;-57
2023/05/05 13:52:23;;;;;;;1.73;1.08;;;17.20;67.00;;;;;;10370912;28;20030;-57
2023/05/05 13:57:24;;;;;;;1.80;1.17;;;17.30;67.10;;;;;;10370527;28;20113;-57
2023/05/05 14:02:25;;;;;;;3.13;1.30;;;17.30;67.10;;;;;;10369363;28;20124;-56
2023/05/05 14:07:26;;;;;;;8.45;1.55;;;17.30;67.20;;;;;;10370384;28;20137;-55
2023/05/05 14:12:27;;;;;;;2.45;1.30;;;17.30;67.20;;;;;;10370124;28;20033;-57
2023/05/05 14:17:27;;;;;;;2.55;0.85;;;17.30;67.20;;;;;;10369037;28;20449;-56
2023/05/05 14:22:28;;;;;;;1.33;0.90;;;17.30;67.30;;;;;;10368528;28;20042;-57
2023/05/05 14:27:29;;;;;;;3.40;0.85;;;17.20;67.20;;;;;;10368179;28;20104;-57
2023/05/05 14:32:29;;;;;;;7.68;1.45;;;17.30;67.30;;;;;;10369273;28;20113;-57
2023/05/05 14:37:30;;;;;;;1.70;0.85;;;17.30;67.30;;;;;;10369328;28;20109;-56
2023/05/05 14:42:31;;;;;;;1.58;1.00;;;17.20;67.30;;;;;;10368712;28;20049;-56
2023/05/05 14:47:34;;;;;;;1.73;1.10;;;17.20;67.30;;;;;;10368287;28;20057;-57
2023/05/05 14:52:38;;;;;;;2.13;1.20;;;17.30;67.30;;;;;;10367686;28;20095;-56
2023/05/05 14:57:38;;;;;;;8.00;1.25;;;17.30;67.30;;;;;;10368648;28;20030;-57
2023/05/05 15:02:39;;;;;;;1.60;0.88;;;17.30;67.40;;;;;;10367500;28;20054;-56
2023/05/05 15:07:40;;;;;;;2.90;1.25;;;17.30;67.30;;;;;;10368510;28;20108;-56
2023/05/05 15:12:41;;;;;;;1.73;0.98;;;17.30;67.30;;;;;;10366595;28;20065;-56
2023/05/05 15:17:42;;;;;;;4.93;1.30;;;17.30;67.30;;;;;;10367444;28;20524;-57
2023/05/05 15:22:42;;;;;;;1.70;1.10;;;17.30;67.50;;;;;;10367683;28;20226;-56
2023/05/05 15:27:43;;;;;;;2.65;1.10;;;17.50;67.40;;;;;;10366912;28;20065;-54
2023/05/05 15:32:44;;;;;;;1.45;1.00;;;17.50;67.10;;;;;;10367807;28;20026;-54
2023/05/05 15:37:45;;;;;;;1.75;1.05;;;17.50;66.80;;;;;;10366644;28;20038;-56
2023/05/05 15:42:48;;;;;;;1.27;0.88;;;17.60;66.80;;;;;;10366507;28;20455;-56
2023/05/05 15:47:49;;;;;;;4.93;1.10;;;17.60;66.80;;;;;;10366267;28;20048;-56
2023/05/05 15:52:50;;;;;;;7.78;1.00;;;17.60;66.70;;;;;;10366186;28;20060;-56
2023/05/05 15:57:51;;;;;;;2.88;1.05;;;17.60;66.70;;;;;;10365913;28;20457;-57
2023/05/05 16:02:52;;;;;;;1.83;0.95;;;17.70;66.60;;;;;;10366299;28;20636;-55
2023/05/05 16:07:52;;;;;;;7.40;1.38;;;17.70;66.60;;;;;;10365689;28;20018;-54
2023/05/05 16:12:53;;;;;;;1.85;1.10;;;17.70;66.50;;;;;;10364156;28;20109;-57
2023/05/05 16:17:54;;;;;;;3.25;1.10;;;17.70;66.50;;;;;;10364015;28;20081;-54
2023/05/05 16:22:54;;;;;;;1.67;1.20;;;17.70;66.50;;;;;;10363462;28;20026;-54
2023/05/05 16:27:56;;;;;;;1.75;0.95;;;17.70;66.60;;;;;;10364827;28;20029;-55
2023/05/05 16:32:57;;;;;;;1.77;0.70;;;17.70;66.70;;;;;;10365957;28;20018;-55
2023/05/05 16:37:57;;;;;;;1.27;0.82;;;17.60;66.80;;;;;;10363345;28;20373;-57
2023/05/05 16:42:58;;;;;;;1.90;1.00;;;17.70;66.80;;;;;;10363964;28;20050;-56
2023/05/05 16:47:59;;;;;;;5.75;0.93;;;17.70;66.60;;;;;;10338810;28;20570;-56
2023/05/05 16:52:59;;;;;;;2.33;0.75;;;17.70;66.40;;;;;;10364135;28;20029;-56
2023/05/05 16:58:00;;;;;;;1.35;0.93;;;17.80;66.40;;;;;;10364111;28;20038;-56
2023/05/05 17:03:01;;;;;;;1.58;1.10;;;17.80;66.40;;;;;;10363922;28;20121;-57
2023/05/05 17:08:02;;;;;;;1.00;0.73;;;17.80;66.30;;;;;;10362955;28;20025;-57
2023/05/05 17:13:03;;;;;;;1.33;0.77;;;17.80;66.50;;;;;;10362490;28;20030;-56
2023/05/05 17:18:05;;;;;;;2.45;1.05;;;17.80;67.10;;;;;;10363729;28;20211;-57
2023/05/05 17:23:07;;;;;;;4.57;0.88;;;17.80;66.50;;;;;;10362258;28;20045;-57
2023/05/05 17:28:08;;;;;;;1.42;0.95;;;17.80;66.50;;;;;;10350414;28;20091;-57
2023/05/05 17:33:09;;;;;;;1.15;0.75;;;17.80;66.40;;;;;;10363128;28;20056;-56
2023/05/05 17:38:10;;;;;;;1.60;1.20;;;17.80;66.50;;;;;;10363520;28;20030;-56
2023/05/05 17:43:10;;;;;;;1.58;1.05;;;17.70;66.50;;;;;;10362085;28;20491;-57
2023/05/05 17:48:11;;;;;;;1.08;0.90;;;17.70;66.60;;;;;;10361187;28;20109;-56
2023/05/05 17:53:12;;;;;;;1.08;0.70;;;17.70;66.60;;;;;;10363364;28;20456;-57
2023/05/05 17:58:13;;;;;;;2.00;1.00;;;17.70;66.60;;;;;;10369466;28;20537;-56
2023/05/05 18:03:13;;;;;;;1.83;1.08;;;17.70;66.60;;;;;;10370546;28;20048;-57
2023/05/05 18:08:14;;;;;;;1.10;0.88;;;17.70;66.70;;;;;;10369069;28;20022;-56
2023/05/05 18:13:15;;;;;;;1.30;0.70;;;17.60;66.70;;;;;;10352372;28;20036;-56
2023/05/05 18:18:15;;;;;;;4.78;0.82;;;17.60;66.70;;;;;;10370101;28;20037;-57
2023/05/05 18:23:16;;;;;;;1.27;0.70;;;17.60;66.80;;;;;;10368002;28;20096;-56
2023/05/05 18:28:17;;;;;;;1.08;0.60;;;17.60;67.40;;;;;;10369387;28;20029;-57
2023/05/05 18:33:18;;;;;;;1.15;0.70;;;17.60;66.90;;;;;;10345041;28;20033;-54
2023/05/05 18:38:18;;;;;;;1.60;0.90;;;17.50;66.90;;;;;;10367540;28;20116;-56
2023/05/05 18:43:19;;;;;;;1.27;0.80;;;17.50;66.90;;;;;;10367894;28;20117;-55
2023/05/05 18:48:20;;;;;;;1.00;0.60;;;17.50;66.90;;;;;;10351546;28;20496;-56
2023/05/05 18:53:21;;;;;;;1.70;0.85;;;17.50;67.00;;;;;;10367411;28;20041;-57
2023/05/05 18:58:21;;;;;;;1.02;0.68;;;17.50;67.00;;;;;;10367036;28;20505;-57
2023/05/05 19:03:22;;;;;;;0.93;0.68;;;17.50;67.10;;;;;;10365629;28;20120;-57
2023/05/05 19:08:23;;;;;;;0.93;0.70;;;17.50;67.20;;;;;;10359159;28;20027;-56
2023/05/05 19:13:23;;;;;;;0.95;0.75;;;17.40;67.20;;;;;;10367949;28;20022;-54
2023/05/05 19:18:25;;;;;;;1.38;0.77;;;17.40;67.30;;;;;;10366475;28;20038;-56
2023/05/05 19:23:26;;;;;;;1.35;0.73;;;17.40;67.30;;;;;;10367278;28;20080;-56
2023/05/05 19:28:26;;;;;;;0.52;0.52;;;17.40;67.30;;;;;;10366916;28;20091;-57
2023/05/05 19:33:27;;;;;;;0.65;0.52;;;17.40;67.30;;;;;;10370465;28;20131;-57
2023/05/05 19:38:28;;;;;;;1.02;0.60;;;17.40;67.40;;;;;;10365764;28;21009;-55
2023/05/05 19:43:28;;;;;;;1.05;0.75;;;17.40;67.50;;;;;;10364863;28;20108;-57
2023/05/05 19:48:30;;;;;;;1.27;0.88;;;17.40;67.50;;;;;;10365239;28;20117;-55
2023/05/05 19:53:30;;;;;;;1.70;1.00;;;17.30;67.60;;;;;;10365311;28;20477;-57
2023/05/05 19:58:59;;;;;;;1.48;0.90;;;17.40;67.70;;;;;;10365608;28;20116;-57
2023/05/05 20:04:00;;;;;;;1.35;1.00;;;17.30;67.70;;;;;;10380227;28;20049;-55
2023/05/05 20:09:01;;;;;;;1.50;0.90;;;17.30;67.80;;;;;;10364124;28;20026;-57
2023/05/05 20:14:01;;;;;;;1.90;1.20;;;17.30;67.70;;;;;;10321192;28;20018;-56
2023/05/05 20:19:02;;;;;;;1.20;0.90;;;17.30;67.60;;;;;;10337784;28;20034;-57
2023/05/05 20:24:03;;;;;;;0.88;0.82;;;17.30;67.60;;;;;;10360673;28;20474;-56
2023/05/05 20:29:05;;;;;;;1.30;1.02;;;17.30;67.50;;;;;;10363163;28;20037;-58
2023/05/05 20:34:05;;;;;;;0.77;0.75;;;17.30;67.50;;;;;;10364984;28;20429;-57
2023/05/05 20:39:06;;;;;;;1.73;1.20;;;17.30;67.50;;;;;;10363704;28;20041;-57
2023/05/05 20:44:09;;;;;;;1.52;1.08;;;17.30;67.50;;;;;;10363552;28;20505;-57
2023/05/05 20:49:09;;;;;;;1.63;1.08;;;17.30;67.50;;;;;;10363152;28;20399;-56
2023/05/05 20:54:10;;;;;;;2.47;1.40;;;17.30;67.40;;;;;;10362860;28;20038;-55
2023/05/05 20:59:11;;;;;;;2.17;1.05;;;17.30;67.40;;;;;;10364212;28;20152;-55
2023/05/05 21:04:11;;;;;;;2.22;1.23;;;17.30;68.00;;;;;;10362760;28;20052;-56
2023/05/05 21:09:12;;;;;;;2.60;1.27;;;17.30;67.30;;;;;;10362499;28;20018;-56
2023/05/05 21:14:13;;;;;;;1.60;1.00;;;17.20;67.20;;;;;;10363904;28;20044;-56
2023/05/05 21:19:13;;;;;;;2.53;1.27;;;17.30;67.30;;;;;;10361962;28;20500;-56
2023/05/05 21:24:14;;;;;;;2.70;1.55;;;17.30;67.20;;;;;;10362731;28;20037;-57
2023/05/05 21:29:15;;;;;;;1.73;1.00;;;17.20;67.10;;;;;;10365063;28;20018;-58
2023/05/05 21:34:16;;;;;;;1.77;1.15;;;17.20;67.10;;;;;;10372650;28;20113;-56
2023/05/05 21:39:17;;;;;;;2.95;0.98;;;17.20;67.10;;;;;;10371330;28;20943;-57
2023/05/05 21:44:18;;;;;;;2.17;1.10;;;17.20;67.10;;;;;;10352907;28;20022;-56
2023/05/05 21:49:19;;;;;;;2.25;1.27;;;17.20;67.00;;;;;;10369789;28;20025;-55
2023/05/05 21:54:19;;;;;;;2.17;1.20;;;17.20;66.90;;;;;;10369889;28;20022;-56
2023/05/05 21:59:20;;;;;;;2.42;1.25;;;17.20;66.90;;;;;;10370325;28;20064;-58
2023/05/05 22:04:21;;;;;;;1.77;1.10;;;17.20;66.80;;;;;;10332831;28;20103;-56
2023/05/05 22:09:22;;;;;;;1.98;1.15;;;17.20;66.90;;;;;;10369106;28;20018;-56
2023/05/05 22:14:22;;;;;;;2.15;0.90;;;17.20;66.80;;;;;;10368801;28;20040;-54
2023/05/05 22:19:23;;;;;;;2.25;1.52;;;17.20;66.80;;;;;;10362030;28;20041;-56
2023/05/05 22:24:24;;;;;;;1.33;0.93;;;17.20;66.80;;;;;;10368686;28;20122;-56
2023/05/05 22:29:25;;;;;;;1.52;1.10;;;17.20;66.80;;;;;;10347968;28;20133;-56
2023/05/05 22:34:25;;;;;;;17.52;1.90;;;17.20;66.70;;;;;;10373152;28;20026;-56
2023/05/05 22:39:26;;;;;;;1.65;0.70;;;17.10;66.60;;;;;;10368474;28;20503;-57
2023/05/05 22:44:27;;;;;;;1.75;1.00;;;17.20;66.60;;;;;;10369375;28;20945;-57
2023/05/05 22:49:27;;;;;;;2.17;1.27;;;17.20;66.60;;;;;;10367735;28;20018;-56
2023/05/05 22:54:28;;;;;;;1.38;1.10;;;17.10;66.50;;;;;;10345649;28;20029;-56
2023/05/05 22:59:29;;;;;;;2.35;1.02;;;17.10;66.50;;;;;;10367206;28;20647;-55
2023/05/05 23:04:29;;;;;;;1.50;1.10;;;17.10;67.00;;;;;;10367177;28;20144;-57
2023/05/05 23:09:30;;;;;;;1.83;1.08;;;17.10;66.40;;;;;;10366515;28;20125;-57
2023/05/05 23:14:31;;;;;;;1.40;0.80;;;17.10;66.40;;;;;;10366858;28;20093;-56
2023/05/05 23:19:31;;;;;;;1.58;0.90;;;17.10;66.40;;;;;;10350144;28;20042;-57
2023/05/05 23:24:32;;;;;;;2.10;1.02;;;17.10;66.40;;;;;;10367387;28;20021;-57
2023/05/05 23:29:33;;;;;;;1.95;1.13;;;17.10;66.40;;;;;;10366057;28;20044;-54
2023/05/05 23:34:33;;;;;;;1.10;0.80;;;17.10;66.40;;;;;;10366688;28;20048;-57
2023/05/05 23:39:34;;;;;;;1.45;0.88;;;17.10;66.40;;;;;;10365613;28;20038;-57
2023/05/05 23:44:35;;;;;;;1.48;0.80;;;17.10;66.50;;;;;;10365634;28;20114;-55
2023/05/05 23:49:36;;;;;;;1.45;0.80;;;17.10;66.50;;;;;;10365720;28;20100;-56
2023/05/05 23:54:36;;;;;;;1.38;0.80;;;17.10;66.50;;;;;;10341023;28;20183;-57
2023/05/05 23:59:38;;;;;;;1.55;0.80;;;17.10;66.50;;;;;;10364720;28;20083;-54
